Napoleon, Indiana
Current Conditions -  °F | °C
As of 2:35 PM on Wednesday 17 Dec 2014 (Local Time) from KI67 Reporting Station
Overcast Overcast  
Wind Chill: 25°   Ceiling: 2000
Heat Index: 32°   Visibility: 10mi
Dew Point: 25°   Wind: 8mph
Humidity: 75%   Direction: 260°W
Pressure: 30.22"   Gusts: NA
Location:  39.2°N, 85.33°W
Report Text: KI67 171935Z AUTO 26007KT 10SM OVC020 00/M04 A3022 RMK AO1
Loading
Personal Weather Stations






























Interactive Weather Map New forecast layout! Learn more

10-Day Weather Forecast

Advertisements
Track Severe Weather on mobile